createdAt,value
2022-11-21T00:20:12.487Z,14.58
2022-11-21T00:37:14.335Z,14.70
2022-11-21T00:43:09.755Z,14.71
2022-11-21T00:45:42.740Z,14.72
2022-11-21T00:51:27.677Z,14.77
2022-11-21T00:54:29.523Z,14.79
2022-11-21T00:57:01.025Z,14.78
2022-11-21T00:59:52.361Z,14.79
2022-11-21T01:05:24.516Z,14.77
2022-11-21T01:10:52.298Z,14.74
2022-11-21T01:13:37.306Z,14.75
2022-11-21T01:16:46.428Z,14.72
2022-11-21T01:19:16.417Z,14.72
2022-11-21T01:22:03.537Z,14.72
2022-11-21T01:24:33.370Z,14.71
2022-11-21T01:27:21.003Z,14.74
2022-11-21T01:29:51.089Z,14.73
2022-11-21T01:35:22.105Z,14.71
2022-11-21T01:38:00.768Z,14.72
2022-11-21T01:40:54.058Z,14.68
2022-11-21T01:43:25.939Z,14.64
2022-11-21T01:46:01.589Z,14.58
2022-11-21T01:48:51.384Z,14.51
2022-11-21T01:51:29.048Z,14.48
2022-11-21T01:54:18.348Z,14.39
2022-11-21T01:56:52.962Z,14.33
2022-11-21T01:59:26.712Z,14.29
2022-11-21T02:01:57.818Z,14.22
2022-11-21T02:04:30.143Z,14.22
2022-11-21T02:07:09.297Z,14.16
2022-11-21T02:09:45.805Z,14.14
2022-11-21T02:12:23.938Z,14.15
2022-11-21T02:14:55.179Z,14.14
2022-11-21T02:17:24.009Z,14.14
2022-11-21T02:19:56.899Z,14.13
2022-11-21T02:22:40.635Z,14.12
2022-11-21T02:25:16.239Z,14.11
2022-11-21T02:27:45.237Z,14.10
2022-11-21T02:30:16.748Z,14.05
2022-11-21T02:32:47.572Z,14.04
2022-11-21T02:35:18.641Z,14.02
2022-11-21T02:37:50.638Z,14.04
2022-11-21T02:40:26.829Z,14.04
2022-11-21T02:43:04.365Z,14.04
2022-11-21T02:45:40.437Z,14.06
2022-11-21T02:48:10.981Z,14.07
2022-11-21T02:50:41.174Z,14.14
2022-11-21T02:53:12.042Z,14.18
2022-11-21T02:55:42.155Z,14.22
2022-11-21T02:58:13.850Z,14.28
2022-11-21T03:00:44.927Z,14.34
2022-11-21T03:03:14.754Z,14.39
2022-11-21T03:05:43.361Z,14.40
2022-11-21T03:08:12.541Z,14.45
2022-11-21T03:10:42.589Z,14.47
2022-11-21T03:13:12.396Z,14.47
2022-11-21T03:15:41.087Z,14.47
2022-11-21T03:18:09.973Z,14.48
2022-11-21T03:20:39.167Z,14.46
2022-11-21T03:23:07.726Z,14.45
2022-11-21T03:25:38.559Z,14.42
2022-11-21T03:28:09.377Z,14.42
2022-11-21T03:30:39.091Z,14.39
2022-11-21T03:33:08.209Z,14.38
2022-11-21T03:35:39.482Z,14.35
2022-11-21T03:38:08.056Z,14.31
2022-11-21T03:40:37.353Z,14.30
2022-11-21T03:43:09.277Z,14.30
2022-11-21T03:45:38.665Z,14.29
2022-11-21T03:48:09.693Z,14.29
2022-11-21T03:50:38.473Z,14.27
2022-11-21T03:53:07.172Z,14.28
2022-11-21T03:55:36.153Z,14.26
2022-11-21T03:58:04.856Z,14.28
2022-11-21T04:00:36.741Z,14.27
2022-11-21T04:03:08.477Z,14.29
2022-11-21T04:05:40.385Z,14.28
2022-11-21T04:08:09.444Z,14.27
2022-11-21T04:10:40.047Z,14.27
2022-11-21T04:13:08.831Z,14.27
2022-11-21T04:15:39.545Z,14.31
2022-11-21T04:18:08.355Z,14.33
2022-11-21T04:20:37.712Z,14.35
2022-11-21T04:23:06.343Z,14.39
2022-11-21T04:25:35.187Z,14.41
2022-11-21T04:28:05.935Z,14.47
2022-11-21T04:30:36.008Z,14.50
2022-11-21T04:33:08.672Z,14.53
2022-11-21T04:35:39.698Z,14.55
2022-11-21T04:38:08.580Z,14.59
2022-11-21T04:40:38.925Z,14.62
2022-11-21T04:43:13.960Z,14.63
2022-11-21T04:45:45.583Z,14.65
2022-11-21T04:48:15.969Z,14.67
2022-11-21T04:50:47.827Z,14.68
2022-11-21T04:53:16.874Z,14.71
2022-11-21T04:55:49.216Z,14.74
2022-11-21T04:58:17.954Z,14.73
2022-11-21T05:00:46.711Z,14.75
2022-11-21T05:03:16.616Z,14.79
2022-11-21T05:05:45.526Z,14.77
2022-11-21T05:08:16.680Z,14.80
2022-11-21T05:11:02.483Z,14.83
2022-11-21T05:13:30.914Z,14.85
2022-11-21T05:16:00.117Z,14.85
2022-11-21T05:18:30.888Z,14.92
2022-11-21T05:20:59.288Z,14.96
2022-11-21T05:23:30.368Z,14.96
2022-11-21T05:25:58.991Z,14.97
2022-11-21T05:31:23.907Z,14.98
2022-11-21T05:33:56.199Z,14.95
2022-11-21T05:36:30.800Z,14.96
2022-11-21T05:38:59.616Z,14.93
2022-11-21T05:41:27.966Z,14.92
2022-11-21T05:43:55.700Z,14.91
2022-11-21T05:46:26.180Z,14.90
2022-11-21T05:48:57.309Z,14.92
2022-11-21T05:51:26.278Z,14.92
2022-11-21T05:53:59.637Z,14.97
2022-11-21T05:56:38.268Z,14.99
2022-11-21T05:59:08.545Z,15.00
2022-11-21T06:01:59.727Z,14.98
2022-11-21T06:04:31.591Z,14.97
2022-11-21T06:09:58.339Z,14.98
2022-11-21T06:15:45.393Z,14.98
2022-11-21T06:21:25.260Z,14.97
2022-11-21T06:24:10.825Z,14.97
2022-11-21T06:29:48.565Z,14.96
2022-11-21T06:49:55.846Z,14.98
2022-11-21T07:17:41.535Z,14.82
2022-11-21T07:36:37.173Z,14.74
2022-11-21T07:41:51.242Z,14.64
2022-11-21T07:44:19.599Z,14.62
2022-11-21T07:46:49.601Z,14.62
2022-11-21T07:49:29.862Z,14.60
2022-11-21T07:52:08.671Z,14.60
2022-11-21T07:54:38.023Z,14.61
2022-11-21T07:57:09.831Z,14.61
2022-11-21T07:59:38.595Z,14.58
2022-11-21T08:02:07.284Z,14.59
2022-11-21T08:04:56.259Z,14.60
2022-11-21T08:07:33.838Z,14.62
2022-11-21T08:10:06.680Z,14.60
2022-11-21T08:12:36.827Z,14.63
2022-11-21T08:15:10.481Z,14.60
2022-11-21T08:17:39.897Z,14.63
2022-11-21T08:20:26.379Z,14.61
2022-11-21T08:22:55.366Z,14.61
2022-11-21T08:25:27.130Z,14.59
2022-11-21T08:28:00.197Z,14.57
2022-11-21T08:33:16.523Z,14.58
2022-11-21T08:35:55.070Z,14.56
2022-11-21T08:38:24.285Z,14.58
2022-11-21T08:41:17.675Z,14.53
2022-11-21T08:43:53.878Z,14.58
2022-11-21T08:46:34.439Z,14.61
2022-11-21T08:49:15.577Z,14.63
2022-11-21T08:52:01.915Z,14.68
2022-11-21T08:54:38.173Z,14.67
2022-11-21T08:57:20.394Z,14.72
2022-11-21T08:59:53.541Z,14.77
2022-11-21T09:02:23.921Z,14.84
2022-11-21T09:05:02.102Z,14.87
2022-11-21T09:07:32.834Z,14.94
2022-11-21T09:13:00.404Z,15.06
2022-11-21T09:15:48.070Z,15.11
2022-11-21T09:18:21.325Z,15.16
2022-11-21T09:20:52.994Z,15.18
2022-11-21T09:23:24.034Z,15.18
2022-11-21T09:25:52.875Z,15.22
2022-11-21T09:31:26.171Z,15.26
2022-11-21T09:33:56.602Z,15.27
2022-11-21T09:36:28.526Z,15.28
2022-11-21T09:39:16.790Z,15.32
2022-11-21T10:09:29.978Z,14.66
2022-11-21T10:12:26.724Z,13.98
2022-11-21T10:26:53.123Z,13.41
2022-11-21T10:31:59.229Z,13.53
2022-11-21T10:34:41.882Z,13.58
2022-11-21T10:37:30.964Z,13.63
2022-11-21T10:42:59.406Z,13.79
2022-11-21T10:45:27.488Z,13.97
2022-11-21T10:47:55.897Z,14.07
2022-11-21T10:51:07.538Z,14.16
2022-11-21T10:53:56.022Z,14.26
2022-11-21T11:00:00.814Z,14.33
2022-11-21T11:02:30.799Z,14.32
2022-11-21T11:05:29.305Z,14.32
2022-11-21T11:11:50.092Z,14.15
2022-11-21T11:14:33.907Z,14.08
2022-11-21T11:20:56.262Z,13.87
2022-11-21T11:23:49.158Z,13.81
2022-11-21T11:27:15.455Z,13.77
2022-11-21T11:33:51.934Z,14.04
2022-11-21T11:36:58.620Z,14.11
2022-11-21T11:40:02.888Z,14.10
2022-11-21T11:43:13.748Z,14.21
2022-11-21T11:47:05.087Z,14.33
2022-11-21T11:50:18.615Z,14.38
2022-11-21T11:56:29.301Z,14.65
2022-11-21T11:59:07.093Z,14.67
2022-11-21T12:01:51.988Z,14.63
2022-11-21T12:08:33.202Z,14.73
2022-11-21T12:10:36.997Z,14.88
2022-11-21T12:13:32.685Z,14.96
2022-11-21T12:16:13.723Z,15.03
2022-11-21T12:19:06.337Z,15.04
2022-11-21T12:21:48.209Z,15.10
2022-11-21T12:27:30.450Z,15.13
2022-11-21T12:30:29.213Z,15.12
2022-11-21T12:33:13.619Z,15.18
2022-11-21T12:36:18.169Z,15.37
2022-11-21T12:39:15.178Z,15.35
2022-11-21T12:45:14.352Z,15.35
2022-11-21T12:48:35.949Z,15.27
2022-11-21T12:52:04.603Z,15.19
2022-11-21T12:55:13.759Z,15.05
2022-11-21T12:57:59.279Z,15.08
2022-11-21T13:09:23.882Z,15.15
2022-11-21T13:15:16.151Z,15.19
2022-11-21T13:24:07.294Z,15.18
2022-11-21T13:33:48.341Z,15.10
2022-11-21T13:43:41.098Z,15.56
2022-11-21T13:47:03.187Z,15.73
2022-11-21T13:52:59.774Z,15.63
2022-11-21T13:59:00.556Z,15.50
2022-11-21T14:02:45.908Z,15.42
2022-11-21T14:06:02.057Z,15.38
2022-11-21T14:09:18.931Z,15.57
2022-11-21T14:15:32.186Z,15.89
2022-11-21T14:21:37.919Z,16.17
2022-11-21T14:27:34.142Z,15.71
2022-11-21T14:30:03.864Z,15.54
2022-11-21T14:32:56.160Z,15.44
2022-11-21T14:36:12.303Z,15.27
2022-11-21T14:39:21.010Z,15.20
2022-11-21T14:42:09.961Z,15.21
2022-11-21T14:44:42.181Z,15.08
2022-11-21T14:47:31.477Z,15.05
2022-11-21T14:50:07.738Z,15.00
2022-11-21T14:52:51.963Z,15.03
2022-11-21T14:55:41.536Z,15.07
2022-11-21T14:58:12.585Z,15.00
2022-11-21T15:01:07.203Z,14.96
2022-11-21T15:03:38.045Z,14.96
2022-11-21T15:13:08.532Z,15.18
2022-11-21T15:19:00.048Z,14.95
2022-11-21T15:21:47.397Z,14.80
2022-11-21T15:25:05.523Z,14.67
2022-11-21T15:30:48.048Z,14.60
2022-11-21T15:33:32.536Z,14.53
2022-11-21T15:39:46.316Z,14.41
2022-11-21T15:48:53.194Z,14.28
2022-11-21T15:52:07.728Z,14.33
2022-11-21T16:01:26.133Z,13.63
2022-11-21T16:04:16.420Z,13.24
2022-11-21T16:07:18.154Z,12.96
2022-11-21T16:09:57.291Z,12.91
2022-11-21T16:12:49.012Z,13.00
2022-11-21T16:15:23.678Z,13.23
2022-11-21T16:18:00.944Z,13.34
2022-11-21T16:23:41.945Z,13.56
2022-11-21T16:26:14.329Z,13.51
2022-11-21T16:29:07.124Z,13.38
2022-11-21T16:42:28.145Z,13.29
2022-11-21T16:45:11.362Z,13.16
2022-11-21T16:47:49.239Z,13.02
2022-11-21T16:50:20.057Z,12.82
2022-11-21T16:52:53.077Z,12.70
2022-11-21T16:55:43.679Z,12.74
2022-11-21T17:01:24.708Z,12.97
2022-11-21T17:04:03.291Z,13.08
2022-11-21T17:06:58.380Z,13.25
2022-11-21T17:09:29.310Z,13.36
2022-11-21T17:15:03.200Z,13.57
2022-11-21T17:18:07.195Z,13.67
2022-11-21T17:26:46.711Z,13.64
2022-11-21T17:44:45.552Z,13.41
2022-11-21T17:47:41.249Z,13.49
2022-11-21T17:53:14.785Z,13.66
2022-11-21T17:55:55.362Z,13.73
2022-11-21T17:58:25.456Z,13.57
2022-11-21T18:01:24.832Z,13.38
2022-11-21T18:04:11.671Z,12.93
2022-11-21T18:09:51.156Z,12.64
2022-11-21T18:12:23.818Z,12.63
2022-11-21T18:14:54.913Z,12.72
2022-11-21T18:17:30.828Z,12.69
2022-11-21T18:20:01.970Z,12.66
2022-11-21T18:22:38.303Z,12.63
2022-11-21T18:25:51.554Z,12.65
2022-11-21T18:28:44.972Z,12.66
2022-11-21T18:46:21.667Z,12.60
2022-11-21T18:49:10.589Z,12.65
2022-11-21T18:51:42.220Z,12.72
2022-11-21T18:57:27.247Z,12.95
2022-11-21T19:05:52.626Z,13.13
2022-11-21T19:14:24.289Z,13.25
2022-11-21T19:17:07.067Z,13.35
2022-11-21T19:31:23.962Z,13.76
2022-11-21T19:34:06.464Z,13.79
2022-11-21T20:13:15.673Z,14.06
2022-11-21T20:16:08.286Z,14.08
2022-11-21T20:18:56.193Z,13.98
2022-11-21T20:21:42.417Z,13.85
2022-11-21T20:24:43.332Z,13.70
2022-11-21T20:30:40.631Z,13.51
2022-11-21T20:33:25.862Z,13.43
2022-11-21T20:35:58.163Z,13.31
2022-11-21T20:38:38.238Z,13.14
2022-11-21T20:44:41.754Z,12.85
2022-11-21T20:46:53.574Z,12.66
2022-11-21T20:53:50.776Z,12.49
2022-11-21T20:56:12.048Z,12.50
2022-11-21T20:58:55.784Z,12.56
2022-11-21T21:04:29.146Z,12.60
2022-11-21T21:10:02.850Z,12.65
2022-11-21T21:19:09.838Z,12.80
2022-11-21T21:27:32.295Z,13.04
2022-11-21T21:44:32.984Z,13.45
2022-11-21T21:50:01.382Z,13.61
2022-11-21T21:52:36.935Z,13.65
2022-11-21T22:02:06.929Z,13.61
2022-11-21T22:05:34.584Z,13.61
2022-11-21T22:14:19.496Z,13.71
2022-11-21T22:43:20.515Z,14.09
2022-11-21T22:45:55.208Z,13.87
2022-11-21T23:02:21.056Z,12.00
2022-11-21T23:04:51.594Z,11.97
2022-11-21T23:34:13.222Z,12.87
2022-11-21T23:48:18.964Z,13.10
